sensor_id;sensor_type;location;lat;lon;timestamp;temperature;humidity
152;DHT22;68;48.792;9.164;2022-07-22T00:01:51;20.80;85.60
152;DHT22;68;48.792;9.164;2022-07-22T00:04:18;20.80;86.20
152;DHT22;68;48.792;9.164;2022-07-22T00:06:45;20.70;85.90
152;DHT22;68;48.792;9.164;2022-07-22T00:09:13;20.60;85.50
152;DHT22;68;48.792;9.164;2022-07-22T00:11:40;20.60;85.60
152;DHT22;68;48.792;9.164;2022-07-22T00:14:07;20.60;86.10
152;DHT22;68;48.792;9.164;2022-07-22T00:16:33;20.60;86.20
152;DHT22;68;48.792;9.164;2022-07-22T00:19:00;20.60;86.40
152;DHT22;68;48.792;9.164;2022-07-22T00:21:27;20.60;86.50
152;DHT22;68;48.792;9.164;2022-07-22T00:23:54;20.60;85.40
152;DHT22;68;48.792;9.164;2022-07-22T00:26:22;20.50;85.50
152;DHT22;68;48.792;9.164;2022-07-22T00:28:49;20.50;85.90
152;DHT22;68;48.792;9.164;2022-07-22T00:31:16;20.50;85.60
152;DHT22;68;48.792;9.164;2022-07-22T00:33:42;20.40;85.90
152;DHT22;68;48.792;9.164;2022-07-22T00:36:09;20.50;86.30
152;DHT22;68;48.792;9.164;2022-07-22T00:38:38;20.50;86.00
152;DHT22;68;48.792;9.164;2022-07-22T00:41:05;20.40;86.40
152;DHT22;68;48.792;9.164;2022-07-22T00:43:52;20.40;86.80
152;DHT22;68;48.792;9.164;2022-07-22T00:46:19;20.30;86.90
152;DHT22;68;48.792;9.164;2022-07-22T00:48:46;20.30;87.10
152;DHT22;68;48.792;9.164;2022-07-22T00:51:13;20.20;87.20
152;DHT22;68;48.792;9.164;2022-07-22T00:53:40;20.20;87.90
152;DHT22;68;48.792;9.164;2022-07-22T00:56:07;20.20;87.70
152;DHT22;68;48.792;9.164;2022-07-22T00:58:34;20.10;88.10
152;DHT22;68;48.792;9.164;2022-07-22T01:01:02;20.00;89.20
152;DHT22;68;48.792;9.164;2022-07-22T01:03:29;20.00;88.60
152;DHT22;68;48.792;9.164;2022-07-22T01:05:56;20.00;89.60
152;DHT22;68;48.792;9.164;2022-07-22T01:08:23;19.90;89.40
152;DHT22;68;48.792;9.164;2022-07-22T01:10:50;19.90;90.30
152;DHT22;68;48.792;9.164;2022-07-22T01:13:17;19.80;91.00
152;DHT22;68;48.792;9.164;2022-07-22T01:15:44;19.80;91.00
152;DHT22;68;48.792;9.164;2022-07-22T01:18:12;19.70;91.10
152;DHT22;68;48.792;9.164;2022-07-22T01:20:41;19.70;91.10
152;DHT22;68;48.792;9.164;2022-07-22T01:23:07;19.70;91.30
152;DHT22;68;48.792;9.164;2022-07-22T01:25:34;19.80;91.30
152;DHT22;68;48.792;9.164;2022-07-22T01:28:01;19.80;91.40
152;DHT22;68;48.792;9.164;2022-07-22T01:30:28;19.80;90.80
152;DHT22;68;48.792;9.164;2022-07-22T01:32:55;19.80;91.10
152;DHT22;68;48.792;9.164;2022-07-22T01:35:22;19.80;90.80
152;DHT22;68;48.792;9.164;2022-07-22T01:37:50;19.80;90.50
152;DHT22;68;48.792;9.164;2022-07-22T01:40:17;19.70;90.80
152;DHT22;68;48.792;9.164;2022-07-22T01:42:44;19.80;90.80
152;DHT22;68;48.792;9.164;2022-07-22T01:45:11;19.90;91.20
152;DHT22;68;48.792;9.164;2022-07-22T01:47:37;19.90;90.40
152;DHT22;68;48.792;9.164;2022-07-22T01:50:05;19.90;90.00
152;DHT22;68;48.792;9.164;2022-07-22T01:52:32;19.70;90.30
152;DHT22;68;48.792;9.164;2022-07-22T01:55:00;19.60;90.50
152;DHT22;68;48.792;9.164;2022-07-22T01:57:27;19.50;91.40
152;DHT22;68;48.792;9.164;2022-07-22T01:59:54;19.50;91.40
152;DHT22;68;48.792;9.164;2022-07-22T02:02:21;19.50;91.50
152;DHT22;68;48.792;9.164;2022-07-22T02:04:48;19.50;91.90
152;DHT22;68;48.792;9.164;2022-07-22T02:07:15;19.60;91.70
152;DHT22;68;48.792;9.164;2022-07-22T02:09:41;19.60;91.20
152;DHT22;68;48.792;9.164;2022-07-22T02:12:10;19.50;91.60
152;DHT22;68;48.792;9.164;2022-07-22T02:14:36;19.50;91.60
152;DHT22;68;48.792;9.164;2022-07-22T02:17:03;19.40;91.80
152;DHT22;68;48.792;9.164;2022-07-22T02:19:30;19.30;91.90
152;DHT22;68;48.792;9.164;2022-07-22T02:21:57;19.30;92.00
152;DHT22;68;48.792;9.164;2022-07-22T02:24:23;19.30;92.30
152;DHT22;68;48.792;9.164;2022-07-22T02:26:50;19.50;92.50
152;DHT22;68;48.792;9.164;2022-07-22T02:29:18;19.60;92.30
152;DHT22;68;48.792;9.164;2022-07-22T02:31:45;19.60;91.80
152;DHT22;68;48.792;9.164;2022-07-22T02:34:12;19.50;91.60
152;DHT22;68;48.792;9.164;2022-07-22T02:36:38;19.50;92.00
152;DHT22;68;48.792;9.164;2022-07-22T02:39:06;19.40;92.30
152;DHT22;68;48.792;9.164;2022-07-22T02:41:33;19.40;92.90
152;DHT22;68;48.792;9.164;2022-07-22T02:44:00;19.30;91.90
152;DHT22;68;48.792;9.164;2022-07-22T02:46:28;19.40;91.70
152;DHT22;68;48.792;9.164;2022-07-22T02:48:55;19.30;92.30
152;DHT22;68;48.792;9.164;2022-07-22T02:51:22;19.20;92.20
152;DHT22;68;48.792;9.164;2022-07-22T02:53:49;19.20;92.90
152;DHT22;68;48.792;9.164;2022-07-22T02:56:16;19.20;92.60
152;DHT22;68;48.792;9.164;2022-07-22T02:58:43;19.10;92.40
152;DHT22;68;48.792;9.164;2022-07-22T03:01:11;19.00;93.00
152;DHT22;68;48.792;9.164;2022-07-22T03:03:39;18.90;93.20
152;DHT22;68;48.792;9.164;2022-07-22T03:06:06;18.90;93.20
152;DHT22;68;48.792;9.164;2022-07-22T03:08:33;18.90;93.40
152;DHT22;68;48.792;9.164;2022-07-22T03:11:00;18.90;93.30
152;DHT22;68;48.792;9.164;2022-07-22T03:13:27;18.80;93.40
152;DHT22;68;48.792;9.164;2022-07-22T03:15:54;18.70;93.40
152;DHT22;68;48.792;9.164;2022-07-22T03:18:21;18.60;93.50
152;DHT22;68;48.792;9.164;2022-07-22T03:20:49;18.60;93.10
152;DHT22;68;48.792;9.164;2022-07-22T03:23:16;18.50;93.40
152;DHT22;68;48.792;9.164;2022-07-22T03:25:43;18.50;93.10
152;DHT22;68;48.792;9.164;2022-07-22T03:28:10;18.40;92.70
152;DHT22;68;48.792;9.164;2022-07-22T03:30:36;18.40;92.20
152;DHT22;68;48.792;9.164;2022-07-22T03:33:03;18.40;92.30
152;DHT22;68;48.792;9.164;2022-07-22T03:35:31;18.40;92.80
152;DHT22;68;48.792;9.164;2022-07-22T03:37:59;18.40;92.40
152;DHT22;68;48.792;9.164;2022-07-22T03:40:27;18.30;92.10
152;DHT22;68;48.792;9.164;2022-07-22T03:42:54;18.30;91.80
152;DHT22;68;48.792;9.164;2022-07-22T03:45:21;18.30;91.70
152;DHT22;68;48.792;9.164;2022-07-22T03:47:48;18.30;91.70
152;DHT22;68;48.792;9.164;2022-07-22T03:50:14;18.30;91.40
152;DHT22;68;48.792;9.164;2022-07-22T03:52:41;18.30;90.90
152;DHT22;68;48.792;9.164;2022-07-22T03:55:09;18.30;90.20
152;DHT22;68;48.792;9.164;2022-07-22T03:57:36;18.40;91.50
152;DHT22;68;48.792;9.164;2022-07-22T04:00:04;18.50;92.30
152;DHT22;68;48.792;9.164;2022-07-22T04:02:31;18.50;92.70
152;DHT22;68;48.792;9.164;2022-07-22T04:04:58;18.70;92.60
152;DHT22;68;48.792;9.164;2022-07-22T04:07:25;18.80;93.10
152;DHT22;68;48.792;9.164;2022-07-22T04:09:51;18.70;93.00
152;DHT22;68;48.792;9.164;2022-07-22T04:12:32;18.70;93.20
152;DHT22;68;48.792;9.164;2022-07-22T04:14:59;18.70;92.60
152;DHT22;68;48.792;9.164;2022-07-22T04:17:26;18.80;93.30
152;DHT22;68;48.792;9.164;2022-07-22T04:19:52;18.60;92.80
152;DHT22;68;48.792;9.164;2022-07-22T04:22:19;18.40;92.00
152;DHT22;68;48.792;9.164;2022-07-22T04:24:46;18.40;91.50
152;DHT22;68;48.792;9.164;2022-07-22T04:27:13;18.20;91.40
152;DHT22;68;48.792;9.164;2022-07-22T04:29:41;18.20;91.00
152;DHT22;68;48.792;9.164;2022-07-22T04:32:07;18.20;90.00
152;DHT22;68;48.792;9.164;2022-07-22T04:34:34;18.20;90.20
152;DHT22;68;48.792;9.164;2022-07-22T04:37:01;18.30;90.90
152;DHT22;68;48.792;9.164;2022-07-22T04:39:29;18.30;90.50
152;DHT22;68;48.792;9.164;2022-07-22T04:41:56;18.30;90.30
152;DHT22;68;48.792;9.164;2022-07-22T04:44:23;18.40;91.00
152;DHT22;68;48.792;9.164;2022-07-22T04:46:51;18.40;91.20
152;DHT22;68;48.792;9.164;2022-07-22T04:49:18;18.40;92.20
152;DHT22;68;48.792;9.164;2022-07-22T04:51:45;18.40;92.10
152;DHT22;68;48.792;9.164;2022-07-22T04:54:11;18.40;91.60
152;DHT22;68;48.792;9.164;2022-07-22T04:56:38;18.40;91.60
152;DHT22;68;48.792;9.164;2022-07-22T04:59:05;18.50;91.30
152;DHT22;68;48.792;9.164;2022-07-22T05:01:32;18.30;91.80
152;DHT22;68;48.792;9.164;2022-07-22T05:04:00;18.40;91.80
152;DHT22;68;48.792;9.164;2022-07-22T05:06:26;18.40;91.60
152;DHT22;68;48.792;9.164;2022-07-22T05:08:53;18.30;91.60
152;DHT22;68;48.792;9.164;2022-07-22T05:11:20;18.40;91.40
152;DHT22;68;48.792;9.164;2022-07-22T05:13:47;18.60;91.80
152;DHT22;68;48.792;9.164;2022-07-22T05:16:14;18.60;91.40
152;DHT22;68;48.792;9.164;2022-07-22T05:18:40;18.80;92.30
152;DHT22;68;48.792;9.164;2022-07-22T05:21:09;18.90;92.40
152;DHT22;68;48.792;9.164;2022-07-22T05:23:35;18.80;92.60
152;DHT22;68;48.792;9.164;2022-07-22T05:26:04;18.80;92.10
152;DHT22;68;48.792;9.164;2022-07-22T05:28:31;18.80;91.90
152;DHT22;68;48.792;9.164;2022-07-22T05:30:57;18.70;91.40
152;DHT22;68;48.792;9.164;2022-07-22T05:33:24;18.70;91.60
152;DHT22;68;48.792;9.164;2022-07-22T05:35:51;18.90;92.10
152;DHT22;68;48.792;9.164;2022-07-22T05:38:19;18.90;91.80
152;DHT22;68;48.792;9.164;2022-07-22T05:40:46;18.90;91.90
152;DHT22;68;48.792;9.164;2022-07-22T05:43:13;18.90;92.00
152;DHT22;68;48.792;9.164;2022-07-22T05:45:40;19.00;92.60
152;DHT22;68;48.792;9.164;2022-07-22T05:48:06;19.20;92.90
152;DHT22;68;48.792;9.164;2022-07-22T05:50:33;19.20;93.00
152;DHT22;68;48.792;9.164;2022-07-22T05:53:00;19.30;92.90
152;DHT22;68;48.792;9.164;2022-07-22T05:55:28;19.30;92.70
152;DHT22;68;48.792;9.164;2022-07-22T05:57:55;19.30;92.90
152;DHT22;68;48.792;9.164;2022-07-22T06:00:22;19.30;93.10
152;DHT22;68;48.792;9.164;2022-07-22T06:02:49;19.50;93.30
152;DHT22;68;48.792;9.164;2022-07-22T06:05:16;19.80;93.30
152;DHT22;68;48.792;9.164;2022-07-22T06:07:42;19.70;93.40
152;DHT22;68;48.792;9.164;2022-07-22T06:10:09;19.80;93.30
152;DHT22;68;48.792;9.164;2022-07-22T06:12:37;19.90;93.30
152;DHT22;68;48.792;9.164;2022-07-22T06:15:05;20.00;93.10
152;DHT22;68;48.792;9.164;2022-07-22T06:17:32;20.10;93.10
152;DHT22;68;48.792;9.164;2022-07-22T06:19:59;20.20;92.80
152;DHT22;68;48.792;9.164;2022-07-22T06:22:26;20.20;92.40
152;DHT22;68;48.792;9.164;2022-07-22T06:24:53;20.30;92.40
152;DHT22;68;48.792;9.164;2022-07-22T06:27:19;20.20;92.70
152;DHT22;68;48.792;9.164;2022-07-22T06:29:47;20.20;92.70
152;DHT22;68;48.792;9.164;2022-07-22T06:32:14;20.20;92.70
152;DHT22;68;48.792;9.164;2022-07-22T06:34:41;20.20;92.70
152;DHT22;68;48.792;9.164;2022-07-22T06:37:08;20.30;92.70
152;DHT22;68;48.792;9.164;2022-07-22T06:39:35;20.20;91.30
152;DHT22;68;48.792;9.164;2022-07-22T06:42:02;20.30;91.20
152;DHT22;68;48.792;9.164;2022-07-22T06:44:29;20.30;91.60
152;DHT22;68;48.792;9.164;2022-07-22T06:46:57;20.30;91.50
152;DHT22;68;48.792;9.164;2022-07-22T06:49:24;20.30;91.00
152;DHT22;68;48.792;9.164;2022-07-22T06:51:50;20.40;91.20
152;DHT22;68;48.792;9.164;2022-07-22T06:54:18;20.50;91.20
152;DHT22;68;48.792;9.164;2022-07-22T06:56:44;20.50;90.70
152;DHT22;68;48.792;9.164;2022-07-22T06:59:11;20.50;91.10
152;DHT22;68;48.792;9.164;2022-07-22T07:01:39;20.70;90.80
152;DHT22;68;48.792;9.164;2022-07-22T07:04:07;20.70;90.60
152;DHT22;68;48.792;9.164;2022-07-22T07:06:34;20.70;90.40
152;DHT22;68;48.792;9.164;2022-07-22T07:09:01;20.80;90.00
152;DHT22;68;48.792;9.164;2022-07-22T07:11:28;20.90;89.90
152;DHT22;68;48.792;9.164;2022-07-22T07:13:55;21.20;89.00
152;DHT22;68;48.792;9.164;2022-07-22T07:16:21;21.30;88.60
152;DHT22;68;48.792;9.164;2022-07-22T07:18:48;21.30;88.00
152;DHT22;68;48.792;9.164;2022-07-22T07:21:22;21.40;87.80
152;DHT22;68;48.792;9.164;2022-07-22T07:23:49;21.60;87.90
152;DHT22;68;48.792;9.164;2022-07-22T07:26:16;21.80;87.40
152;DHT22;68;48.792;9.164;2022-07-22T07:28:43;21.90;86.20
152;DHT22;68;48.792;9.164;2022-07-22T07:31:09;21.80;86.70
152;DHT22;68;48.792;9.164;2022-07-22T07:33:37;21.90;86.00
152;DHT22;68;48.792;9.164;2022-07-22T07:36:04;22.00;85.00
152;DHT22;68;48.792;9.164;2022-07-22T07:38:33;22.20;85.10
152;DHT22;68;48.792;9.164;2022-07-22T07:41:00;22.30;84.80
152;DHT22;68;48.792;9.164;2022-07-22T07:43:27;22.30;84.40
152;DHT22;68;48.792;9.164;2022-07-22T07:45:54;22.30;82.40
152;DHT22;68;48.792;9.164;2022-07-22T07:48:21;22.40;83.40
152;DHT22;68;48.792;9.164;2022-07-22T07:50:47;22.50;81.40
152;DHT22;68;48.792;9.164;2022-07-22T07:53:15;22.10;82.70
152;DHT22;68;48.792;9.164;2022-07-22T07:55:43;22.00;83.10
152;DHT22;68;48.792;9.164;2022-07-22T07:58:10;22.30;83.20
152;DHT22;68;48.792;9.164;2022-07-22T08:00:37;22.50;82.10
152;DHT22;68;48.792;9.164;2022-07-22T08:03:05;22.70;82.10
152;DHT22;68;48.792;9.164;2022-07-22T08:05:32;22.60;81.60
152;DHT22;68;48.792;9.164;2022-07-22T08:08:00;22.70;81.80
152;DHT22;68;48.792;9.164;2022-07-22T08:10:27;22.50;82.20
152;DHT22;68;48.792;9.164;2022-07-22T08:12:55;22.60;83.00
152;DHT22;68;48.792;9.164;2022-07-22T08:15:23;22.60;81.50
152;DHT22;68;48.792;9.164;2022-07-22T08:17:50;22.70;82.30
152;DHT22;68;48.792;9.164;2022-07-22T08:20:17;22.90;82.00
152;DHT22;68;48.792;9.164;2022-07-22T08:22:44;23.00;80.10
152;DHT22;68;48.792;9.164;2022-07-22T08:25:11;23.10;79.40
152;DHT22;68;48.792;9.164;2022-07-22T08:27:38;23.20;79.40
152;DHT22;68;48.792;9.164;2022-07-22T08:30:07;23.30;80.00
152;DHT22;68;48.792;9.164;2022-07-22T08:32:34;23.30;79.20
152;DHT22;68;48.792;9.164;2022-07-22T08:35:01;23.60;79.10
152;DHT22;68;48.792;9.164;2022-07-22T08:37:28;23.80;77.10
152;DHT22;68;48.792;9.164;2022-07-22T08:39:55;24.00;77.60
152;DHT22;68;48.792;9.164;2022-07-22T08:42:24;24.20;77.10
152;DHT22;68;48.792;9.164;2022-07-22T08:44:53;23.70;77.00
152;DHT22;68;48.792;9.164;2022-07-22T08:47:22;23.50;77.80
152;DHT22;68;48.792;9.164;2022-07-22T08:49:49;23.60;78.80
152;DHT22;68;48.792;9.164;2022-07-22T08:52:16;23.70;76.20
152;DHT22;68;48.792;9.164;2022-07-22T08:54:43;23.80;76.20
152;DHT22;68;48.792;9.164;2022-07-22T08:57:10;23.90;77.10
152;DHT22;68;48.792;9.164;2022-07-22T08:59:49;24.10;75.70
152;DHT22;68;48.792;9.164;2022-07-22T09:02:17;24.40;75.20
152;DHT22;68;48.792;9.164;2022-07-22T09:04:54;24.70;75.80
152;DHT22;68;48.792;9.164;2022-07-22T09:07:27;24.80;75.30
152;DHT22;68;48.792;9.164;2022-07-22T09:09:54;25.00;75.60
152;DHT22;68;48.792;9.164;2022-07-22T09:12:21;25.10;72.80
152;DHT22;68;48.792;9.164;2022-07-22T09:14:50;25.20;73.30
152;DHT22;68;48.792;9.164;2022-07-22T09:17:29;24.90;72.80
152;DHT22;68;48.792;9.164;2022-07-22T09:19:58;24.60;74.00
152;DHT22;68;48.792;9.164;2022-07-22T09:22:37;24.70;75.00
152;DHT22;68;48.792;9.164;2022-07-22T09:25:21;24.90;73.30
152;DHT22;68;48.792;9.164;2022-07-22T09:27:50;25.10;73.50
152;DHT22;68;48.792;9.164;2022-07-22T09:30:19;25.30;72.10
152;DHT22;68;48.792;9.164;2022-07-22T09:32:46;25.40;71.70
152;DHT22;68;48.792;9.164;2022-07-22T09:35:15;25.40;72.60
152;DHT22;68;48.792;9.164;2022-07-22T09:37:51;25.40;73.00
152;DHT22;68;48.792;9.164;2022-07-22T09:40:20;25.60;71.60
152;DHT22;68;48.792;9.164;2022-07-22T09:42:50;25.40;73.10
152;DHT22;68;48.792;9.164;2022-07-22T09:45:19;25.50;73.20
152;DHT22;68;48.792;9.164;2022-07-22T09:47:46;25.80;71.30
152;DHT22;68;48.792;9.164;2022-07-22T09:50:17;25.90;71.20
152;DHT22;68;48.792;9.164;2022-07-22T09:52:45;25.70;69.30
152;DHT22;68;48.792;9.164;2022-07-22T09:55:14;25.80;71.00
152;DHT22;68;48.792;9.164;2022-07-22T09:57:42;26.00;70.60
152;DHT22;68;48.792;9.164;2022-07-22T10:00:10;26.20;70.00
152;DHT22;68;48.792;9.164;2022-07-22T10:02:41;26.10;68.80
152;DHT22;68;48.792;9.164;2022-07-22T10:05:12;26.00;69.50
152;DHT22;68;48.792;9.164;2022-07-22T10:07:41;26.10;69.60
152;DHT22;68;48.792;9.164;2022-07-22T10:10:12;26.00;68.80
152;DHT22;68;48.792;9.164;2022-07-22T10:12:40;26.10;69.00
152;DHT22;68;48.792;9.164;2022-07-22T10:15:08;26.30;69.80
152;DHT22;68;48.792;9.164;2022-07-22T10:17:37;26.30;69.20
152;DHT22;68;48.792;9.164;2022-07-22T10:20:06;26.50;68.90
152;DHT22;68;48.792;9.164;2022-07-22T10:22:54;26.60;67.90
152;DHT22;68;48.792;9.164;2022-07-22T10:25:22;26.80;67.60
152;DHT22;68;48.792;9.164;2022-07-22T10:27:52;26.60;67.80
152;DHT22;68;48.792;9.164;2022-07-22T10:30:21;26.70;69.10
152;DHT22;68;48.792;9.164;2022-07-22T10:33:04;26.80;67.00
152;DHT22;68;48.792;9.164;2022-07-22T10:35:32;26.90;68.60
152;DHT22;68;48.792;9.164;2022-07-22T10:38:06;27.30;67.80
152;DHT22;68;48.792;9.164;2022-07-22T10:40:50;27.60;65.60
152;DHT22;68;48.792;9.164;2022-07-22T10:43:18;27.60;65.30
152;DHT22;68;48.792;9.164;2022-07-22T10:45:47;27.30;65.90
152;DHT22;68;48.792;9.164;2022-07-22T10:48:20;27.20;66.80
152;DHT22;68;48.792;9.164;2022-07-22T10:50:52;27.20;66.90
152;DHT22;68;48.792;9.164;2022-07-22T10:53:23;27.30;67.30
152;DHT22;68;48.792;9.164;2022-07-22T10:56:03;27.50;67.10
152;DHT22;68;48.792;9.164;2022-07-22T10:58:48;27.50;65.30
152;DHT22;68;48.792;9.164;2022-07-22T11:01:18;27.80;67.30
152;DHT22;68;48.792;9.164;2022-07-22T11:03:48;28.20;66.30
152;DHT22;68;48.792;9.164;2022-07-22T11:06:17;28.30;65.30
152;DHT22;68;48.792;9.164;2022-07-22T11:08:48;28.50;64.80
152;DHT22;68;48.792;9.164;2022-07-22T11:11:15;28.60;64.90
152;DHT22;68;48.792;9.164;2022-07-22T11:13:43;29.00;63.70
152;DHT22;68;48.792;9.164;2022-07-22T11:16:19;29.30;62.30
152;DHT22;68;48.792;9.164;2022-07-22T11:18:52;29.30;62.10
152;DHT22;68;48.792;9.164;2022-07-22T11:21:21;29.30;62.40
152;DHT22;68;48.792;9.164;2022-07-22T11:23:51;29.40;62.50
152;DHT22;68;48.792;9.164;2022-07-22T11:26:23;29.00;62.20
152;DHT22;68;48.792;9.164;2022-07-22T11:28:51;29.00;64.50
152;DHT22;68;48.792;9.164;2022-07-22T11:31:18;29.20;62.60
152;DHT22;68;48.792;9.164;2022-07-22T11:33:45;29.40;61.70
152;DHT22;68;48.792;9.164;2022-07-22T11:36:12;29.60;61.50
152;DHT22;68;48.792;9.164;2022-07-22T11:38:45;29.70;61.40
152;DHT22;68;48.792;9.164;2022-07-22T11:41:14;29.80;61.70
152;DHT22;68;48.792;9.164;2022-07-22T11:43:43;29.50;59.40
152;DHT22;68;48.792;9.164;2022-07-22T11:46:10;29.50;61.10
152;DHT22;68;48.792;9.164;2022-07-22T11:48:38;29.80;61.20
152;DHT22;68;48.792;9.164;2022-07-22T11:51:06;29.40;60.00
152;DHT22;68;48.792;9.164;2022-07-22T11:53:33;29.20;60.50
152;DHT22;68;48.792;9.164;2022-07-22T11:56:01;29.20;61.70
152;DHT22;68;48.792;9.164;2022-07-22T11:58:40;29.30;61.20
152;DHT22;68;48.792;9.164;2022-07-22T12:01:10;29.70;61.40
152;DHT22;68;48.792;9.164;2022-07-22T12:03:39;30.00;60.90
152;DHT22;68;48.792;9.164;2022-07-22T12:06:08;30.00;59.90
152;DHT22;68;48.792;9.164;2022-07-22T12:08:40;30.30;58.30
152;DHT22;68;48.792;9.164;2022-07-22T12:11:07;30.60;57.90
152;DHT22;68;48.792;9.164;2022-07-22T12:13:34;30.40;57.50
152;DHT22;68;48.792;9.164;2022-07-22T12:18:57;30.20;58.70
152;DHT22;68;48.792;9.164;2022-07-22T12:21:25;30.60;56.10
152;DHT22;68;48.792;9.164;2022-07-22T12:23:54;30.80;55.90
152;DHT22;68;48.792;9.164;2022-07-22T12:26:39;31.10;56.60
152;DHT22;68;48.792;9.164;2022-07-22T12:29:18;31.00;57.20
152;DHT22;68;48.792;9.164;2022-07-22T12:31:46;31.00;54.80
152;DHT22;68;48.792;9.164;2022-07-22T12:34:15;31.20;54.90
152;DHT22;68;48.792;9.164;2022-07-22T12:36:46;31.30;54.10
152;DHT22;68;48.792;9.164;2022-07-22T12:39:15;31.50;52.80
152;DHT22;68;48.792;9.164;2022-07-22T12:41:47;31.50;55.10
152;DHT22;68;48.792;9.164;2022-07-22T12:44:16;31.50;54.20
152;DHT22;68;48.792;9.164;2022-07-22T12:46:48;31.60;52.70
152;DHT22;68;48.792;9.164;2022-07-22T12:49:18;31.30;54.50
152;DHT22;68;48.792;9.164;2022-07-22T12:52:04;31.30;54.30
152;DHT22;68;48.792;9.164;2022-07-22T12:54:31;31.40;52.90
152;DHT22;68;48.792;9.164;2022-07-22T12:56:58;31.50;52.10
152;DHT22;68;48.792;9.164;2022-07-22T12:59:25;31.70;51.80
152;DHT22;68;48.792;9.164;2022-07-22T13:01:52;31.80;53.10
152;DHT22;68;48.792;9.164;2022-07-22T13:04:20;31.90;51.80
152;DHT22;68;48.792;9.164;2022-07-22T13:06:47;31.80;53.20
152;DHT22;68;48.792;9.164;2022-07-22T13:09:14;31.90;51.50
152;DHT22;68;48.792;9.164;2022-07-22T13:11:41;32.00;50.30
152;DHT22;68;48.792;9.164;2022-07-22T13:14:10;31.60;50.40
152;DHT22;68;48.792;9.164;2022-07-22T13:16:37;31.60;52.40
152;DHT22;68;48.792;9.164;2022-07-22T13:19:03;31.70;53.70
152;DHT22;68;48.792;9.164;2022-07-22T13:21:32;31.80;52.50
152;DHT22;68;48.792;9.164;2022-07-22T13:23:58;31.90;53.20
152;DHT22;68;48.792;9.164;2022-07-22T13:26:25;32.10;52.20
152;DHT22;68;48.792;9.164;2022-07-22T13:28:52;32.00;52.10
152;DHT22;68;48.792;9.164;2022-07-22T13:31:19;31.60;51.10
152;DHT22;68;48.792;9.164;2022-07-22T13:33:46;31.20;52.80
152;DHT22;68;48.792;9.164;2022-07-22T13:36:13;31.10;54.70
152;DHT22;68;48.792;9.164;2022-07-22T13:38:41;31.40;52.70
152;DHT22;68;48.792;9.164;2022-07-22T13:41:08;31.30;52.20
152;DHT22;68;48.792;9.164;2022-07-22T13:43:42;31.20;52.90
152;DHT22;68;48.792;9.164;2022-07-22T13:46:09;31.00;54.50
152;DHT22;68;48.792;9.164;2022-07-22T13:48:36;31.20;54.60
152;DHT22;68;48.792;9.164;2022-07-22T13:51:03;31.20;53.30
152;DHT22;68;48.792;9.164;2022-07-22T13:53:31;31.20;54.70
152;DHT22;68;48.792;9.164;2022-07-22T13:55:59;31.30;52.10
152;DHT22;68;48.792;9.164;2022-07-22T13:58:26;31.40;52.30
152;DHT22;68;48.792;9.164;2022-07-22T14:00:53;31.30;53.20
152;DHT22;68;48.792;9.164;2022-07-22T14:03:20;31.20;50.60
152;DHT22;68;48.792;9.164;2022-07-22T14:05:47;31.20;51.70
152;DHT22;68;48.792;9.164;2022-07-22T14:08:14;31.20;52.10
152;DHT22;68;48.792;9.164;2022-07-22T14:10:41;31.50;52.00
152;DHT22;68;48.792;9.164;2022-07-22T14:13:09;31.80;51.40
152;DHT22;68;48.792;9.164;2022-07-22T14:15:36;32.00;50.90
152;DHT22;68;48.792;9.164;2022-07-22T14:18:03;32.20;51.60
152;DHT22;68;48.792;9.164;2022-07-22T14:20:32;32.20;49.80
152;DHT22;68;48.792;9.164;2022-07-22T14:22:59;32.30;49.50
152;DHT22;68;48.792;9.164;2022-07-22T14:25:27;32.00;49.60
152;DHT22;68;48.792;9.164;2022-07-22T14:27:53;32.00;50.20
152;DHT22;68;48.792;9.164;2022-07-22T14:30:22;31.80;48.20
152;DHT22;68;48.792;9.164;2022-07-22T14:32:49;31.70;49.00
152;DHT22;68;48.792;9.164;2022-07-22T14:35:16;31.80;50.80
152;DHT22;68;48.792;9.164;2022-07-22T14:37:42;31.90;50.70
152;DHT22;68;48.792;9.164;2022-07-22T14:40:10;32.00;49.60
152;DHT22;68;48.792;9.164;2022-07-22T14:42:37;31.90;49.50
152;DHT22;68;48.792;9.164;2022-07-22T14:45:06;31.90;49.80
152;DHT22;68;48.792;9.164;2022-07-22T14:47:36;31.70;50.80
152;DHT22;68;48.792;9.164;2022-07-22T14:50:03;31.70;51.90
152;DHT22;68;48.792;9.164;2022-07-22T14:52:30;31.90;49.50
152;DHT22;68;48.792;9.164;2022-07-22T14:54:57;31.70;48.80
152;DHT22;68;48.792;9.164;2022-07-22T14:57:24;31.60;51.00
152;DHT22;68;48.792;9.164;2022-07-22T14:59:51;31.50;49.00
152;DHT22;68;48.792;9.164;2022-07-22T15:02:18;31.20;49.60
152;DHT22;68;48.792;9.164;2022-07-22T15:04:47;31.20;49.40
152;DHT22;68;48.792;9.164;2022-07-22T15:07:14;31.10;48.50
152;DHT22;68;48.792;9.164;2022-07-22T15:09:41;31.20;49.70
152;DHT22;68;48.792;9.164;2022-07-22T15:12:07;31.30;49.00
152;DHT22;68;48.792;9.164;2022-07-22T15:14:34;31.30;48.60
152;DHT22;68;48.792;9.164;2022-07-22T15:17:01;31.30;48.70
152;DHT22;68;48.792;9.164;2022-07-22T15:19:28;31.30;49.90
152;DHT22;68;48.792;9.164;2022-07-22T15:21:56;31.60;50.10
152;DHT22;68;48.792;9.164;2022-07-22T15:24:23;31.90;50.10
152;DHT22;68;48.792;9.164;2022-07-22T15:26:50;31.70;50.50
152;DHT22;68;48.792;9.164;2022-07-22T15:29:17;31.60;50.70
152;DHT22;68;48.792;9.164;2022-07-22T15:31:44;31.70;50.50
152;DHT22;68;48.792;9.164;2022-07-22T15:34:11;31.80;50.40
152;DHT22;68;48.792;9.164;2022-07-22T15:36:38;31.60;50.70
152;DHT22;68;48.792;9.164;2022-07-22T15:39:06;31.30;50.20
152;DHT22;68;48.792;9.164;2022-07-22T15:41:33;31.40;51.20
152;DHT22;68;48.792;9.164;2022-07-22T15:44:01;31.50;51.10
152;DHT22;68;48.792;9.164;2022-07-22T15:46:28;31.50;50.90
152;DHT22;68;48.792;9.164;2022-07-22T15:48:55;31.60;50.50
152;DHT22;68;48.792;9.164;2022-07-22T15:51:22;31.60;50.10
152;DHT22;68;48.792;9.164;2022-07-22T15:53:49;31.50;50.20
152;DHT22;68;48.792;9.164;2022-07-22T15:56:17;31.50;51.60
152;DHT22;68;48.792;9.164;2022-07-22T15:58:45;31.50;51.20
152;DHT22;68;48.792;9.164;2022-07-22T16:01:29;31.40;49.70
152;DHT22;68;48.792;9.164;2022-07-22T16:03:56;31.50;51.30
152;DHT22;68;48.792;9.164;2022-07-22T16:06:22;31.60;50.30
152;DHT22;68;48.792;9.164;2022-07-22T16:08:50;31.60;50.10
152;DHT22;68;48.792;9.164;2022-07-22T16:11:18;31.50;49.90
152;DHT22;68;48.792;9.164;2022-07-22T16:13:45;31.60;50.80
152;DHT22;68;48.792;9.164;2022-07-22T16:16:12;31.50;50.90
152;DHT22;68;48.792;9.164;2022-07-22T16:18:38;31.50;51.20
152;DHT22;68;48.792;9.164;2022-07-22T16:21:05;31.70;51.30
152;DHT22;68;48.792;9.164;2022-07-22T16:23:32;31.80;50.50
152;DHT22;68;48.792;9.164;2022-07-22T16:25:59;31.70;49.80
152;DHT22;68;48.792;9.164;2022-07-22T16:28:27;31.80;51.40
152;DHT22;68;48.792;9.164;2022-07-22T16:30:54;31.60;51.30
152;DHT22;68;48.792;9.164;2022-07-22T16:33:21;31.20;51.60
152;DHT22;68;48.792;9.164;2022-07-22T16:35:47;31.10;52.40
152;DHT22;68;48.792;9.164;2022-07-22T16:38:15;31.00;51.90
152;DHT22;68;48.792;9.164;2022-07-22T16:40:41;31.00;51.80
152;DHT22;68;48.792;9.164;2022-07-22T16:43:08;30.90;52.70
152;DHT22;68;48.792;9.164;2022-07-22T16:45:36;30.90;52.00
152;DHT22;68;48.792;9.164;2022-07-22T16:48:03;30.90;53.00
152;DHT22;68;48.792;9.164;2022-07-22T16:50:30;30.90;52.70
152;DHT22;68;48.792;9.164;2022-07-22T16:52:57;30.80;53.20
152;DHT22;68;48.792;9.164;2022-07-22T16:55:24;30.70;53.20
152;DHT22;68;48.792;9.164;2022-07-22T16:57:51;30.60;52.70
152;DHT22;68;48.792;9.164;2022-07-22T17:00:18;30.60;53.60